Time;durP1;ratioP1;P1;durP2;ratioP2;P2;SDS_P1;SDS_P2;PMS_P1;PMS_P2;Temp;Humidity;BMP_temperature;BMP_pressure;BME280_temperature;BME280_humidity;BME280_pressure;Samples;Min_cycle;Max_cycle;Signal;HPM_P1;HPM_P2
2023/05/13 00:01:41;;;;;;;1999.90;999.90;;;14.40;99.90;;;;;;5033196;28;20167;-70
2023/05/13 00:04:07;;;;;;;1999.90;999.90;;;14.40;99.90;;;;;;5033562;28;20194;-70
2023/05/13 00:06:34;;;;;;;1999.90;999.90;;;14.40;99.90;;;;;;5033582;28;20224;-69
2023/05/13 00:09:00;;;;;;;1999.90;999.90;;;14.40;99.90;;;;;;5033108;28;20418;-71
2023/05/13 00:11:26;;;;;;;1999.90;999.90;;;14.40;99.90;;;;;;5033141;28;20408;-70
2023/05/13 00:13:52;;;;;;;1999.90;999.90;;;14.40;99.90;;;;;;5033144;28;20744;-70
2023/05/13 00:16:17;;;;;;;1999.90;999.90;;;14.40;99.90;;;;;;5033239;28;20176;-70
2023/05/13 00:18:43;;;;;;;1999.90;999.90;;;14.30;99.90;;;;;;5033470;28;20167;-71
2023/05/13 00:21:09;;;;;;;1999.90;999.90;;;14.30;99.90;;;;;;5032709;28;20207;-71
2023/05/13 00:23:34;;;;;;;1999.90;999.90;;;14.30;99.90;;;;;;5033048;28;20219;-70
2023/05/13 00:26:00;;;;;;;1999.90;999.90;;;14.20;99.90;;;;;;5033102;28;20169;-71
2023/05/13 00:28:26;;;;;;;1999.90;999.90;;;14.20;99.90;;;;;;5033106;28;20226;-70
2023/05/13 00:30:51;;;;;;;1999.90;999.90;;;14.20;99.90;;;;;;5032835;28;20172;-70
2023/05/13 00:33:17;;;;;;;1999.90;999.90;;;14.20;99.90;;;;;;5032601;28;20198;-70
2023/05/13 00:35:43;;;;;;;1999.90;999.90;;;14.20;99.90;;;;;;5032926;28;20548;-70
2023/05/13 00:38:08;;;;;;;1999.90;999.90;;;14.30;99.90;;;;;;5032993;28;20236;-70
2023/05/13 00:40:41;;;;;;;1999.90;999.90;;;14.30;99.90;;;;;;5032653;28;20203;-71
2023/05/13 00:43:06;;;;;;;1999.90;999.90;;;14.30;99.90;;;;;;5032403;28;20195;-71
2023/05/13 00:45:32;;;;;;;1999.90;999.90;;;14.30;99.90;;;;;;5032570;28;20963;-70
2023/05/13 00:47:59;;;;;;;1999.90;999.90;;;14.30;99.90;;;;;;5032659;28;20740;-70
2023/05/13 00:50:24;;;;;;;1999.90;999.90;;;14.20;99.90;;;;;;5032761;28;20266;-70
2023/05/13 00:52:50;;;;;;;1999.90;999.90;;;14.20;99.90;;;;;;5032118;28;20512;-71
2023/05/13 00:55:16;;;;;;;1999.90;999.90;;;14.20;99.90;;;;;;5032624;28;20174;-70
2023/05/13 00:57:42;;;;;;;1999.90;999.90;;;14.10;99.90;;;;;;5032500;28;20264;-71
2023/05/13 01:00:09;;;;;;;1999.90;999.90;;;14.10;99.90;;;;;;5032357;28;20452;-70
2023/05/13 01:02:54;;;;;;;1999.90;999.90;;;14.20;99.90;;;;;;5032256;28;20196;-71
2023/05/13 01:05:34;;;;;;;1999.90;999.90;;;14.20;99.90;;;;;;5032467;28;20413;-70
2023/05/13 01:08:39;;;;;;;1999.90;999.90;;;14.10;99.90;;;;;;5032381;28;20484;-71
2023/05/13 01:11:20;;;;;;;1999.90;999.90;;;14.00;99.90;;;;;;5032058;28;20415;-70
2023/05/13 01:13:51;;;;;;;1999.90;999.90;;;13.90;99.90;;;;;;5031978;28;20455;-70
2023/05/13 01:16:29;;;;;;;1999.90;999.90;;;13.80;99.90;;;;;;5032271;28;20891;-71
2023/05/13 01:19:01;;;;;;;1999.90;999.90;;;13.70;99.90;;;;;;5032178;28;20457;-70
2023/05/13 01:21:27;;;;;;;1999.90;999.90;;;13.60;99.90;;;;;;5031129;28;20452;-71
2023/05/13 01:23:54;;;;;;;1999.90;999.90;;;13.60;99.90;;;;;;5031972;28;20419;-70
2023/05/13 01:26:21;;;;;;;1999.90;999.90;;;13.60;99.90;;;;;;5032267;28;20782;-71
2023/05/13 01:28:47;;;;;;;1999.90;999.90;;;13.50;99.90;;;;;;5032062;28;20905;-71
2023/05/13 01:31:13;;;;;;;1999.90;999.90;;;13.50;99.90;;;;;;5031764;28;20408;-70
2023/05/13 01:33:40;;;;;;;1999.90;999.90;;;13.60;99.90;;;;;;5031720;28;20577;-71
2023/05/13 01:36:07;;;;;;;1999.90;999.90;;;13.60;99.90;;;;;;5031953;28;20396;-71
2023/05/13 01:38:35;;;;;;;1999.90;999.90;;;13.60;99.90;;;;;;5031945;28;20796;-71
2023/05/13 01:41:01;;;;;;;1999.90;999.90;;;13.60;99.90;;;;;;5031373;28;20553;-69
2023/05/13 01:43:26;;;;;;;1999.90;999.90;;;13.60;99.90;;;;;;5031830;28;20509;-71
2023/05/13 01:45:52;;;;;;;1999.90;999.90;;;13.60;99.90;;;;;;5031771;28;20168;-70
2023/05/13 01:48:18;;;;;;;1999.90;999.90;;;13.50;99.90;;;;;;5031858;28;20164;-70
2023/05/13 01:50:44;;;;;;;1999.90;999.90;;;13.50;99.90;;;;;;5031789;28;20176;-70
2023/05/13 01:53:09;;;;;;;1999.90;999.90;;;13.40;99.90;;;;;;5031509;28;20668;-71
2023/05/13 01:55:35;;;;;;;1999.90;999.90;;;13.40;99.90;;;;;;5031821;28;20419;-70
2023/05/13 01:58:01;;;;;;;1999.90;999.90;;;13.40;99.90;;;;;;5031782;28;20174;-70
2023/05/13 02:00:26;;;;;;;1999.90;999.90;;;13.40;99.90;;;;;;5031677;28;20194;-70
2023/05/13 02:02:52;;;;;;;1999.90;999.90;;;13.40;99.90;;;;;;5031147;28;20194;-70
2023/05/13 02:05:18;;;;;;;1999.90;999.90;;;13.40;99.90;;;;;;5031713;28;20175;-70
2023/05/13 02:07:43;;;;;;;1999.90;999.90;;;13.40;99.90;;;;;;5031715;28;20162;-70
2023/05/13 02:10:09;;;;;;;1999.90;999.90;;;13.40;99.90;;;;;;5031574;28;20180;-70
2023/05/13 02:12:35;;;;;;;1999.90;999.90;;;13.40;99.90;;;;;;5031144;28;21210;-70
2023/05/13 02:15:01;;;;;;;1999.90;999.90;;;13.40;99.90;;;;;;5031571;28;20908;-70
2023/05/13 02:17:26;;;;;;;1999.90;999.90;;;13.40;99.90;;;;;;5031515;28;20182;-70
2023/05/13 02:19:52;;;;;;;1999.90;999.90;;;13.40;99.90;;;;;;5031387;28;20784;-70
2023/05/13 02:22:18;;;;;;;1999.90;999.90;;;13.40;99.90;;;;;;5031175;28;20187;-70
2023/05/13 02:24:43;;;;;;;1999.90;999.90;;;13.30;99.90;;;;;;5031506;28;20229;-70
2023/05/13 02:27:11;;;;;;;1999.90;999.90;;;13.40;99.90;;;;;;5031513;28;20217;-70
2023/05/13 02:29:37;;;;;;;1999.90;999.90;;;13.40;99.90;;;;;;5031383;28;20170;-70
2023/05/13 02:32:03;;;;;;;1999.90;999.90;;;13.40;99.90;;;;;;5032745;28;20576;-70
2023/05/13 02:34:28;;;;;;;1999.90;999.90;;;13.40;99.90;;;;;;5035317;28;20427;-70
2023/05/13 02:36:55;;;;;;;1999.90;999.90;;;13.40;99.90;;;;;;5035150;28;20696;-70
2023/05/13 02:39:20;;;;;;;1999.90;999.90;;;13.30;99.90;;;;;;5035030;28;20199;-70
2023/05/13 02:41:46;;;;;;;1999.90;999.90;;;13.20;99.90;;;;;;5034676;28;20453;-70
2023/05/13 02:44:12;;;;;;;1999.90;999.90;;;13.20;99.90;;;;;;5035071;28;20206;-70
2023/05/13 02:46:37;;;;;;;1999.90;999.90;;;13.20;99.90;;;;;;5034974;28;20696;-70
2023/05/13 02:49:03;;;;;;;1999.90;999.90;;;13.20;99.90;;;;;;5035111;28;20298;-70
2023/05/13 02:51:28;;;;;;;1999.90;999.90;;;13.20;99.90;;;;;;5034589;28;20169;-70
2023/05/13 02:53:54;;;;;;;1999.90;999.90;;;13.10;99.90;;;;;;5034780;28;20225;-70
2023/05/13 02:56:19;;;;;;;1999.90;999.90;;;13.10;99.90;;;;;;5034780;28;20170;-70
2023/05/13 02:58:45;;;;;;;1999.90;999.90;;;13.10;99.90;;;;;;5034658;28;20174;-70
2023/05/13 03:01:11;;;;;;;1999.90;999.90;;;13.10;99.90;;;;;;5034348;28;20199;-70
2023/05/13 03:03:37;;;;;;;1999.90;999.90;;;13.00;99.90;;;;;;5034599;28;20923;-70
2023/05/13 03:06:03;;;;;;;1999.90;999.90;;;13.00;99.90;;;;;;5034750;28;20172;-70
2023/05/13 03:08:28;;;;;;;1999.90;999.90;;;13.00;99.90;;;;;;5034568;28;20791;-70
2023/05/13 03:10:54;;;;;;;1999.90;999.90;;;13.00;99.90;;;;;;5034283;28;20414;-70
2023/05/13 03:13:20;;;;;;;1999.90;999.90;;;12.90;99.90;;;;;;5034177;28;20222;-70
2023/05/13 03:15:45;;;;;;;1999.90;999.90;;;13.00;99.90;;;;;;5034536;28;20272;-70
2023/05/13 03:18:11;;;;;;;1999.90;999.90;;;13.00;99.90;;;;;;5034337;28;20253;-70
2023/05/13 03:20:36;;;;;;;1999.90;999.90;;;13.00;99.90;;;;;;5034247;28;20672;-70
2023/05/13 03:23:02;;;;;;;1999.90;999.90;;;13.00;99.90;;;;;;5033968;28;20201;-70
2023/05/13 03:25:27;;;;;;;1999.90;999.90;;;12.90;99.90;;;;;;5034216;28;20156;-70
2023/05/13 03:27:53;;;;;;;1999.90;999.90;;;12.80;99.90;;;;;;5034090;28;20201;-70
2023/05/13 03:30:19;;;;;;;1999.90;999.90;;;12.70;99.90;;;;;;5034184;28;20179;-70
2023/05/13 03:32:45;;;;;;;1999.90;999.90;;;12.70;99.90;;;;;;5034012;28;20436;-70
2023/05/13 03:35:10;;;;;;;1999.90;999.90;;;12.60;99.90;;;;;;5034098;28;20200;-70
2023/05/13 03:37:36;;;;;;;1999.90;999.90;;;12.60;99.90;;;;;;5034004;28;20644;-70
2023/05/13 03:40:02;;;;;;;1999.90;999.90;;;12.60;99.90;;;;;;5033890;28;20287;-70
2023/05/13 03:42:29;;;;;;;1999.90;999.90;;;12.70;99.90;;;;;;5033541;28;20278;-70
2023/05/13 03:44:55;;;;;;;1999.90;999.90;;;12.70;99.90;;;;;;5033140;28;20398;-70
2023/05/13 03:47:22;;;;;;;1999.90;999.90;;;12.60;99.90;;;;;;5033815;28;20409;-70
2023/05/13 03:49:48;;;;;;;1999.90;999.90;;;12.50;99.90;;;;;;5033903;28;20407;-70
2023/05/13 03:52:13;;;;;;;1999.90;999.90;;;12.50;99.90;;;;;;5033499;28;20966;-70
2023/05/13 03:54:39;;;;;;;1999.90;999.90;;;12.40;99.90;;;;;;5033607;28;20321;-70
2023/05/13 03:57:06;;;;;;;1999.90;999.90;;;12.40;99.90;;;;;;5033725;28;20169;-70
2023/05/13 03:59:32;;;;;;;1999.90;999.90;;;12.40;99.90;;;;;;5033381;28;20204;-71
2023/05/13 04:01:58;;;;;;;1999.90;999.90;;;12.50;99.90;;;;;;5033263;28;20930;-70
2023/05/13 04:04:23;;;;;;;1999.90;999.90;;;12.30;99.90;;;;;;5033675;28;20175;-70
2023/05/13 04:06:49;;;;;;;1999.90;999.90;;;12.30;99.90;;;;;;5033508;28;20170;-70
2023/05/13 04:09:14;;;;;;;1999.90;999.90;;;12.30;99.90;;;;;;5033476;28;20162;-71
2023/05/13 04:11:40;;;;;;;1999.90;999.90;;;12.30;99.90;;;;;;5033078;28;20204;-70
2023/05/13 04:14:05;;;;;;;1999.90;999.90;;;12.30;99.90;;;;;;5033085;28;20222;-70
2023/05/13 04:16:31;;;;;;;1999.90;999.90;;;12.30;99.90;;;;;;5033375;28;20170;-70
2023/05/13 04:18:56;;;;;;;1999.90;999.90;;;12.40;99.90;;;;;;5033323;28;20662;-70
2023/05/13 04:21:22;;;;;;;1999.90;999.90;;;12.40;99.90;;;;;;5032847;28;20265;-70
2023/05/13 04:23:49;;;;;;;1999.90;999.90;;;12.40;99.90;;;;;;5033074;28;20801;-70
2023/05/13 04:26:14;;;;;;;1999.90;999.90;;;12.30;99.90;;;;;;5033098;28;20402;-70
2023/05/13 04:28:40;;;;;;;1999.90;999.90;;;12.30;99.90;;;;;;5033047;28;20165;-70
2023/05/13 04:31:05;;;;;;;1999.90;999.90;;;12.40;99.90;;;;;;5032710;28;20172;-70
2023/05/13 04:33:31;;;;;;;1999.90;999.90;;;12.50;99.90;;;;;;5032966;28;20237;-70
2023/05/13 04:35:56;;;;;;;1999.90;999.90;;;12.60;99.90;;;;;;5032913;28;20175;-70
2023/05/13 04:38:22;;;;;;;1999.90;999.90;;;12.70;99.90;;;;;;5032939;28;20235;-70
2023/05/13 04:40:48;;;;;;;1999.90;999.90;;;12.80;99.90;;;;;;5032693;28;20682;-71
2023/05/13 04:43:13;;;;;;;1999.90;999.90;;;12.80;99.90;;;;;;5032326;28;20197;-70
2023/05/13 04:45:39;;;;;;;1999.90;999.90;;;12.70;99.90;;;;;;5032683;28;20182;-70
2023/05/13 04:48:05;;;;;;;1999.90;999.90;;;12.70;99.90;;;;;;5032697;28;20168;-70
2023/05/13 04:50:30;;;;;;;1999.90;999.90;;;12.60;99.90;;;;;;5032703;28;20260;-70
2023/05/13 04:52:56;;;;;;;1999.90;999.90;;;12.50;99.90;;;;;;5032081;28;20513;-70
2023/05/13 04:55:22;;;;;;;1999.90;999.90;;;12.60;99.90;;;;;;5031433;28;20225;-70
2023/05/13 04:57:48;;;;;;;1999.90;999.90;;;12.50;99.90;;;;;;5032413;28;20412;-71
2023/05/13 05:00:14;;;;;;;1999.90;999.90;;;12.50;99.90;;;;;;5032323;28;20290;-70
2023/05/13 05:02:39;;;;;;;1999.90;999.90;;;12.50;99.90;;;;;;5032151;28;20568;-70
2023/05/13 05:05:05;;;;;;;1999.90;999.90;;;12.50;99.90;;;;;;5032464;28;20412;-71
2023/05/13 05:07:31;;;;;;;1999.90;999.90;;;12.50;99.90;;;;;;5032373;28;20169;-70
2023/05/13 05:09:57;;;;;;;1999.90;999.90;;;12.70;99.90;;;;;;5032674;28;20940;-70
2023/05/13 05:12:22;;;;;;;1999.90;999.90;;;12.70;99.90;;;;;;5031695;28;20215;-70
2023/05/13 05:14:48;;;;;;;1999.90;999.90;;;12.80;99.90;;;;;;5032283;28;20623;-70
2023/05/13 05:17:13;;;;;;;1999.90;999.90;;;12.80;99.90;;;;;;5032156;28;20185;-70
2023/05/13 05:19:39;;;;;;;1999.90;999.90;;;12.90;99.90;;;;;;5032145;28;20198;-70
2023/05/13 05:22:05;;;;;;;1999.90;999.90;;;12.80;99.90;;;;;;5031898;28;20206;-71
2023/05/13 05:24:30;;;;;;;1999.90;999.90;;;12.80;99.90;;;;;;5032153;28;20552;-70
2023/05/13 05:26:56;;;;;;;1999.90;999.90;;;12.80;99.90;;;;;;5032082;28;20545;-70
2023/05/13 05:29:21;;;;;;;1999.90;999.90;;;12.90;99.90;;;;;;5031975;28;20263;-70
2023/05/13 05:31:47;;;;;;;1999.90;999.90;;;12.60;99.90;;;;;;5031731;28;20181;-70
2023/05/13 05:34:13;;;;;;;1999.90;999.90;;;12.90;99.90;;;;;;5032043;28;20568;-70
2023/05/13 05:36:39;;;;;;;1999.90;999.90;;;12.90;99.90;;;;;;5032031;28;20615;-70
2023/05/13 05:39:04;;;;;;;1999.90;999.90;;;12.90;99.90;;;;;;5031938;28;20181;-71
2023/05/13 05:41:31;;;;;;;1999.90;999.90;;;12.90;99.90;;;;;;5031586;28;20206;-70
2023/05/13 05:43:56;;;;;;;1999.90;999.90;;;12.90;99.90;;;;;;5031873;28;20199;-71
2023/05/13 05:46:22;;;;;;;1999.90;999.90;;;12.90;99.90;;;;;;5031884;28;20835;-71
2023/05/13 05:48:48;;;;;;;1999.90;999.90;;;12.90;99.90;;;;;;5032003;28;20180;-70
2023/05/13 05:51:14;;;;;;;1999.90;999.90;;;12.90;99.90;;;;;;5031630;28;20627;-70
2023/05/13 05:53:39;;;;;;;1999.90;999.90;;;13.00;99.90;;;;;;5031739;28;20690;-70
2023/05/13 05:56:05;;;;;;;1999.90;999.90;;;13.00;99.90;;;;;;5031664;28;20411;-71
2023/05/13 05:58:31;;;;;;;1999.90;999.90;;;13.00;99.90;;;;;;5031788;28;20192;-71
2023/05/13 06:00:57;;;;;;;1999.90;999.90;;;13.00;99.90;;;;;;5031418;28;20459;-71
2023/05/13 06:03:23;;;;;;;1999.90;999.90;;;13.00;99.90;;;;;;5031673;28;20285;-71
2023/05/13 06:05:48;;;;;;;1999.90;999.90;;;13.10;99.90;;;;;;5031766;28;20492;-71
2023/05/13 06:08:14;;;;;;;1999.90;999.90;;;13.10;99.90;;;;;;5035250;28;20492;-70
2023/05/13 06:10:39;;;;;;;1999.90;999.90;;;13.30;99.90;;;;;;5035477;28;20644;-71
2023/05/13 06:13:05;;;;;;;1999.90;999.90;;;13.50;99.90;;;;;;5035211;28;20218;-70
2023/05/13 06:15:31;;;;;;;1999.90;999.90;;;13.50;99.90;;;;;;5035636;28;20174;-70
2023/05/13 06:17:56;;;;;;;1999.90;999.90;;;13.50;99.90;;;;;;5036075;28;20177;-70
2023/05/13 06:20:22;;;;;;;1999.90;999.90;;;13.60;99.90;;;;;;5035475;28;20673;-69
2023/05/13 06:22:48;;;;;;;1999.90;999.90;;;13.60;99.90;;;;;;5035271;28;20193;-70
2023/05/13 06:25:13;;;;;;;1999.90;999.90;;;13.60;99.90;;;;;;5035405;28;20204;-70
2023/05/13 06:27:39;;;;;;;1999.90;999.90;;;13.80;99.90;;;;;;5035289;28;20197;-70
2023/05/13 06:30:05;;;;;;;1999.90;999.90;;;13.90;99.90;;;;;;5029615;28;20707;-69
2023/05/13 06:32:31;;;;;;;1999.90;999.90;;;14.00;99.90;;;;;;5034872;28;20681;-70
2023/05/13 06:34:57;;;;;;;1999.90;999.90;;;13.90;99.90;;;;;;5035200;28;20423;-70
2023/05/13 06:37:22;;;;;;;1999.90;999.90;;;13.90;99.90;;;;;;5035069;28;20181;-71
2023/05/13 06:39:48;;;;;;;1999.90;999.90;;;13.80;99.90;;;;;;5035006;28;20209;-71
2023/05/13 06:42:13;;;;;;;1999.90;999.90;;;13.90;99.90;;;;;;5034741;28;20195;-70
2023/05/13 06:44:39;;;;;;;1999.90;999.90;;;13.90;99.90;;;;;;5035103;28;20184;-70
2023/05/13 06:47:05;;;;;;;1999.90;999.90;;;14.00;99.90;;;;;;5035009;28;20179;-69
2023/05/13 06:49:32;;;;;;;1999.90;999.90;;;14.00;99.90;;;;;;5034963;28;20199;-69
2023/05/13 06:51:58;;;;;;;1999.90;999.90;;;13.90;99.90;;;;;;5034470;28;20425;-71
2023/05/13 06:54:25;;;;;;;1999.90;999.90;;;13.90;99.90;;;;;;5034784;28;20414;-71
2023/05/13 06:56:51;;;;;;;1999.90;999.90;;;13.90;99.90;;;;;;5034825;28;20187;-70
2023/05/13 06:59:16;;;;;;;1999.90;999.90;;;14.00;99.90;;;;;;5034565;28;20410;-70
2023/05/13 07:01:42;;;;;;;1999.90;999.90;;;14.20;99.90;;;;;;5034271;28;20172;-70
2023/05/13 07:04:07;;;;;;;1999.90;999.90;;;14.40;99.90;;;;;;5034581;28;20218;-71
2023/05/13 07:06:33;;;;;;;1999.90;999.90;;;14.60;99.90;;;;;;5034564;28;20178;-71
2023/05/13 07:08:59;;;;;;;1999.90;999.90;;;14.60;99.90;;;;;;5034318;28;20171;-73
2023/05/13 07:11:26;;;;;;;1999.90;999.90;;;14.60;99.90;;;;;;5034205;28;20772;-72
2023/05/13 07:13:51;;;;;;;1999.90;999.90;;;14.70;99.90;;;;;;5034295;28;21034;-72
2023/05/13 07:16:17;;;;;;;1999.90;999.90;;;14.80;99.90;;;;;;5034413;28;20425;-69
2023/05/13 07:18:43;;;;;;;1999.90;999.90;;;14.90;99.90;;;;;;5033294;28;20207;-72
2023/05/13 07:21:08;;;;;;;1999.90;999.90;;;15.00;99.90;;;;;;5033973;28;20209;-70
2023/05/13 07:23:34;;;;;;;1999.90;999.90;;;15.10;99.90;;;;;;5034194;28;20189;-71
2023/05/13 07:26:00;;;;;;;1999.90;999.90;;;15.20;99.90;;;;;;5034270;28;20164;-69
2023/05/13 07:28:26;;;;;;;1999.90;999.90;;;15.30;99.90;;;;;;5034208;28;20914;-69
2023/05/13 07:30:52;;;;;;;1999.90;999.90;;;15.50;99.90;;;;;;5034175;28;20525;-69
2023/05/13 07:33:18;;;;;;;1999.90;999.90;;;15.50;99.90;;;;;;5033766;28;20730;-69
2023/05/13 07:35:44;;;;;;;1999.90;999.90;;;15.50;99.90;;;;;;5034068;28;20529;-69
2023/05/13 07:38:12;;;;;;;1999.90;999.90;;;15.70;99.90;;;;;;5034019;28;20786;-69
2023/05/13 07:40:38;;;;;;;1999.90;999.90;;;15.80;99.90;;;;;;5033874;28;20634;-69
2023/05/13 07:43:03;;;;;;;1999.90;999.90;;;16.10;99.90;;;;;;5033637;28;20513;-71
2023/05/13 07:45:29;;;;;;;1999.90;999.90;;;16.30;99.90;;;;;;5033914;28;20254;-70
2023/05/13 07:47:55;;;;;;;1999.90;999.90;;;16.50;99.90;;;;;;5033879;28;20173;-70
2023/05/13 07:50:21;;;;;;;1999.90;999.90;;;16.40;99.90;;;;;;5033806;28;20585;-70
2023/05/13 07:52:50;;;;;;;1999.90;999.90;;;16.40;99.90;;;;;;5033376;28;20473;-69
2023/05/13 07:55:16;;;;;;;1999.90;999.90;;;16.50;99.90;;;;;;5033625;28;20189;-70
2023/05/13 07:57:42;;;;;;;1999.90;999.90;;;16.40;99.90;;;;;;5033704;28;20411;-70
2023/05/13 08:00:08;;;;;;;1999.90;999.90;;;16.50;99.90;;;;;;5030349;28;20870;-69
2023/05/13 08:02:35;;;;;;;1999.90;999.90;;;16.50;99.90;;;;;;5032644;28;20188;-72
2023/05/13 08:05:01;;;;;;;1999.90;999.90;;;16.60;99.90;;;;;;5032939;28;20459;-70
2023/05/13 08:07:28;;;;;;;1999.90;999.90;;;16.80;99.90;;;;;;5032775;28;20414;-70
2023/05/13 08:09:53;;;;;;;1999.90;999.90;;;16.90;99.90;;;;;;5033215;28;20215;-70
2023/05/13 08:12:19;;;;;;;1999.90;999.90;;;17.10;99.90;;;;;;5032422;28;20494;-70
2023/05/13 08:14:44;;;;;;;1999.90;999.90;;;17.00;99.90;;;;;;5032877;28;20184;-70
2023/05/13 08:17:10;;;;;;;1999.90;999.90;;;17.10;99.90;;;;;;5032461;28;20172;-70
2023/05/13 08:19:37;;;;;;;1999.90;999.90;;;17.30;99.90;;;;;;5032580;28;20677;-69
2023/05/13 08:22:03;;;;;;;1999.90;999.90;;;17.40;99.90;;;;;;5032012;28;20400;-70
2023/05/13 08:24:28;;;;;;;1999.90;999.90;;;17.30;99.90;;;;;;5032776;28;20772;-70
2023/05/13 08:26:54;;;;;;;1999.90;999.90;;;17.30;99.90;;;;;;5032820;28;20769;-69
2023/05/13 08:29:19;;;;;;;1999.90;999.90;;;17.30;99.90;;;;;;5031988;28;20171;-70
2023/05/13 08:31:45;;;;;;;1999.90;999.90;;;17.30;99.90;;;;;;5032405;28;20175;-69
2023/05/13 08:34:11;;;;;;;1999.90;999.90;;;17.40;99.90;;;;;;5032650;28;20251;-69
2023/05/13 08:36:37;;;;;;;1999.90;999.90;;;17.60;99.90;;;;;;5032174;28;20463;-69
2023/05/13 08:39:02;;;;;;;1999.90;999.90;;;17.60;99.90;;;;;;5032604;28;20244;-69
2023/05/13 08:41:30;;;;;;;1999.90;999.90;;;17.70;99.90;;;;;;5032303;28;20606;-70
2023/05/13 08:43:58;;;;;;;1999.90;999.90;;;17.80;99.90;;;;;;5032048;28;20250;-67
2023/05/13 08:46:25;;;;;;;1999.90;999.90;;;17.90;99.90;;;;;;5028038;28;20455;-68
2023/05/13 08:48:53;;;;;;;1999.90;999.90;;;18.10;99.90;;;;;;5027563;28;20414;-69
2023/05/13 08:51:19;;;;;;;1999.90;999.90;;;18.40;99.90;;;;;;5027334;28;20418;-69
2023/05/13 08:53:46;;;;;;;1999.90;999.90;;;18.50;99.90;;;;;;5028510;28;20869;-69
2023/05/13 08:56:12;;;;;;;1999.90;999.90;;;18.40;99.90;;;;;;5027919;28;20179;-68
2023/05/13 08:58:38;;;;;;;1999.90;999.90;;;18.50;99.90;;;;;;5027664;28;20491;-69
2023/05/13 09:01:06;;;;;;;1999.90;999.90;;;18.60;99.90;;;;;;5010456;28;20213;-68
2023/05/13 09:03:32;;;;;;;1999.90;999.90;;;18.80;99.90;;;;;;5027404;28;20203;-68
2023/05/13 09:06:01;;;;;;;1999.90;999.90;;;18.90;99.90;;;;;;5026520;28;20418;-69
2023/05/13 09:08:27;;;;;;;1999.90;999.90;;;19.00;99.90;;;;;;5028077;28;20466;-68
2023/05/13 09:10:53;;;;;;;1999.90;999.90;;;19.10;99.90;;;;;;5027166;28;20788;-69
2023/05/13 09:13:18;;;;;;;1999.90;999.90;;;19.10;99.90;;;;;;5027678;28;20256;-70
2023/05/13 09:15:44;;;;;;;1999.90;999.90;;;19.00;99.90;;;;;;5027715;28;20180;-69
2023/05/13 09:18:11;;;;;;;1999.90;999.90;;;19.00;99.90;;;;;;5027508;28;20259;-68
2023/05/13 09:20:37;;;;;;;1999.90;999.90;;;19.20;99.90;;;;;;5027741;28;20681;-68
2023/05/13 09:23:08;;;;;;;1999.90;999.90;;;19.40;99.90;;;;;;5027329;28;20429;-68
2023/05/13 09:25:35;;;;;;;1999.90;999.90;;;19.50;99.90;;;;;;5027443;28;20182;-69
2023/05/13 09:28:04;;;;;;;1999.90;999.90;;;19.80;99.90;;;;;;5027434;28;20413;-70
2023/05/13 09:30:32;;;;;;;1999.90;999.90;;;20.00;99.90;;;;;;5028050;28;20419;-70
2023/05/13 09:33:15;;;;;;;1999.90;999.90;;;20.20;99.90;;;;;;5026847;28;20438;-69
2023/05/13 09:35:49;;;;;;;1999.90;999.90;;;20.00;99.90;;;;;;5026635;28;20418;-69
2023/05/13 09:38:17;;;;;;;1999.90;999.90;;;20.10;99.90;;;;;;5009467;28;20412;-69
2023/05/13 09:40:53;;;;;;;1999.90;999.90;;;19.70;99.90;;;;;;5026767;28;20464;-69
2023/05/13 09:43:20;;;;;;;1999.90;999.90;;;19.40;99.90;;;;;;5026373;28;20857;-69
2023/05/13 09:45:46;;;;;;;1999.90;999.90;;;19.10;99.90;;;;;;5027993;28;20426;-70
2023/05/13 09:48:13;;;;;;;1999.90;999.90;;;18.80;99.90;;;;;;5027253;28;20418;-69
2023/05/13 09:50:49;;;;;;;1999.90;999.90;;;18.90;99.90;;;;;;5026516;28;20589;-69
2023/05/13 09:53:15;;;;;;;1999.90;999.90;;;19.00;99.90;;;;;;5026736;28;20439;-69
2023/05/13 09:55:45;;;;;;;1999.90;999.90;;;19.50;99.90;;;;;;5027762;28;20406;-69
2023/05/13 09:58:11;;;;;;;1999.90;999.90;;;19.50;99.90;;;;;;5027146;28;20515;-69
2023/05/13 10:00:40;;;;;;;1999.90;999.90;;;20.00;99.90;;;;;;5027043;28;20886;-69
2023/05/13 10:03:06;;;;;;;1999.90;999.90;;;20.00;99.90;;;;;;5027540;28;20232;-70
2023/05/13 10:05:32;;;;;;;1999.90;999.90;;;20.20;99.90;;;;;;5027205;28;20415;-69
2023/05/13 10:08:00;;;;;;;1999.90;999.90;;;20.50;99.90;;;;;;5027108;28;20780;-69
2023/05/13 10:10:29;;;;;;;1999.90;999.90;;;20.70;99.90;;;;;;5027573;28;20475;-70
2023/05/13 10:12:55;;;;;;;1999.90;999.90;;;20.90;99.90;;;;;;5027220;28;20935;-69
2023/05/13 10:15:22;;;;;;;1999.90;999.90;;;20.90;99.90;;;;;;5027112;28;20465;-69
2023/05/13 10:17:49;;;;;;;1999.90;999.90;;;21.00;99.90;;;;;;5027433;28;20419;-71
2023/05/13 10:20:15;;;;;;;1999.90;999.90;;;21.10;99.90;;;;;;5027367;28;20551;-70
2023/05/13 10:22:41;;;;;;;1999.90;999.90;;;21.10;99.90;;;;;;5026699;28;20913;-70
2023/05/13 10:25:08;;;;;;;1999.90;999.90;;;21.20;99.90;;;;;;5027353;28;20420;-70
2023/05/13 10:27:33;;;;;;;1999.90;999.90;;;21.50;99.90;;;;;;5027272;28;20921;-69
2023/05/13 10:30:01;;;;;;;1999.90;999.90;;;21.30;99.90;;;;;;5027070;28;20415;-70
2023/05/13 10:32:29;;;;;;;1999.90;999.90;;;21.20;99.90;;;;;;5027010;28;20205;-69
2023/05/13 10:35:14;;;;;;;1999.90;999.90;;;21.00;99.90;;;;;;5027446;28;20939;-69
2023/05/13 10:37:45;;;;;;;1999.90;999.90;;;21.00;99.90;;;;;;5027485;28;20468;-69
2023/05/13 10:40:17;;;;;;;1999.90;999.90;;;20.70;99.90;;;;;;5027596;28;20466;-70
2023/05/13 10:42:49;;;;;;;1999.90;999.90;;;20.60;99.90;;;;;;5026635;28;20841;-70
2023/05/13 10:45:16;;;;;;;1999.90;999.90;;;20.80;99.90;;;;;;5027000;28;20839;-70
2023/05/13 10:47:41;;;;;;;1999.90;999.90;;;20.90;99.90;;;;;;5026726;28;20909;-70
2023/05/13 10:50:23;;;;;;;1999.90;999.90;;;21.10;99.90;;;;;;5027048;28;20422;-70
2023/05/13 10:52:50;;;;;;;1999.90;999.90;;;21.50;99.90;;;;;;5028297;28;20199;-70
2023/05/13 10:55:19;;;;;;;1999.90;999.90;;;22.00;99.90;;;;;;5030793;28;20421;-70
2023/05/13 10:58:10;;;;;;;1999.90;999.90;;;22.30;99.90;;;;;;5029997;28;20513;-70
2023/05/13 11:00:37;;;;;;;1999.90;999.90;;;22.80;99.90;;;;;;5030994;28;20897;-70
2023/05/13 11:03:12;;;;;;;1999.90;999.90;;;23.10;99.90;;;;;;5030040;28;20522;-70
2023/05/13 11:05:40;;;;;;;1999.90;999.90;;;23.10;99.90;;;;;;5029751;28;20416;-70
2023/05/13 11:08:05;;;;;;;1999.90;999.90;;;22.80;99.90;;;;;;5030288;28;20415;-68
2023/05/13 11:10:31;;;;;;;1999.90;999.90;;;22.90;99.90;;;;;;5030769;28;20426;-69
2023/05/13 11:13:05;;;;;;;1999.90;999.90;;;22.70;99.90;;;;;;5029334;28;20342;-70
2023/05/13 11:15:44;;;;;;;1999.90;999.90;;;22.90;99.90;;;;;;5029917;28;20215;-70
2023/05/13 11:18:11;;;;;;;1999.90;999.90;;;23.20;99.90;;;;;;5029733;28;20454;-69
2023/05/13 11:20:37;;;;;;;1999.90;999.90;;;23.30;99.90;;;;;;5029841;28;20446;-68
2023/05/13 11:23:03;;;;;;;1999.90;999.90;;;23.40;99.90;;;;;;5030318;28;20452;-70
2023/05/13 11:25:29;;;;;;;1999.90;999.90;;;23.70;99.90;;;;;;5029741;28;20434;-69
2023/05/13 11:27:54;;;;;;;1999.90;999.90;;;23.50;97.10;;;;;;5029923;28;20249;-68
2023/05/13 11:30:22;;;;;;;1999.90;999.90;;;23.40;95.90;;;;;;5030121;28;20180;-70
2023/05/13 11:32:51;;;;;;;1999.90;999.90;;;23.50;95.90;;;;;;5029417;28;20242;-70
2023/05/13 11:35:30;;;;;;;1999.90;999.90;;;23.80;97.70;;;;;;5029355;28;20401;-70
2023/05/13 11:37:58;;;;;;;1999.90;999.90;;;24.30;96.60;;;;;;5029570;28;20824;-70
2023/05/13 11:40:32;;;;;;;1999.90;999.90;;;24.50;94.10;;;;;;5029996;28;20902;-69
2023/05/13 11:42:58;;;;;;;1999.90;999.90;;;24.10;90.20;;;;;;5030014;28;20405;-70
2023/05/13 11:45:25;;;;;;;1999.90;999.90;;;24.00;93.10;;;;;;5029634;28;20389;-70
2023/05/13 11:47:52;;;;;;;1999.90;999.90;;;24.00;90.90;;;;;;5029218;28;20763;-68
2023/05/13 11:50:20;;;;;;;1999.90;999.90;;;24.00;90.10;;;;;;5030074;28;20407;-70
2023/05/13 11:52:54;;;;;;;1999.90;999.90;;;24.00;86.20;;;;;;5028870;28;20442;-70
2023/05/13 11:55:30;;;;;;;1999.90;999.90;;;23.60;90.30;;;;;;5028449;28;20415;-70
2023/05/13 11:57:59;;;;;;;1999.90;999.90;;;23.90;90.30;;;;;;5029167;28;20411;-69